sensor_id;sensor_type;location;lat;lon;timestamp;pressure;altitude;pressure_sealevel;temperature;humidity
35778;BME280;21899;42.662;23.316;2023-02-01T00:00:08;94460.09;;;0.93;89.61
35778;BME280;21899;42.662;23.316;2023-02-01T00:02:34;94456.25;;;0.91;88.71
35778;BME280;21899;42.662;23.316;2023-02-01T00:05:01;94455.66;;;0.85;89.55
35778;BME280;21899;42.662;23.316;2023-02-01T00:07:26;94467.72;;;0.86;89.21
35778;BME280;21899;42.662;23.316;2023-02-01T00:09:51;94471.59;;;0.89;89.25
35778;BME280;21899;42.662;23.316;2023-02-01T00:12:17;94469.44;;;0.91;88.99
35778;BME280;21899;42.662;23.316;2023-02-01T00:14:42;94474.22;;;0.89;88.46
35778;BME280;21899;42.662;23.316;2023-02-01T00:17:08;94463.25;;;0.87;88.49
35778;BME280;21899;42.662;23.316;2023-02-01T00:19:34;94474.47;;;0.96;88.12
35778;BME280;21899;42.662;23.316;2023-02-01T00:22:00;94475.78;;;0.90;88.10
35778;BME280;21899;42.662;23.316;2023-02-01T00:24:26;94468.97;;;0.89;87.69
35778;BME280;21899;42.662;23.316;2023-02-01T00:26:51;94458.16;;;0.82;87.70
35778;BME280;21899;42.662;23.316;2023-02-01T00:29:19;94463.44;;;0.82;88.33
35778;BME280;21899;42.662;23.316;2023-02-01T00:31:45;94464.16;;;0.91;88.05
35778;BME280;21899;42.662;23.316;2023-02-01T00:34:15;94463.25;;;0.87;87.18
35778;BME280;21899;42.662;23.316;2023-02-01T00:36:42;94465.16;;;0.78;86.61
35778;BME280;21899;42.662;23.316;2023-02-01T00:39:08;94460.97;;;0.77;86.38
35778;BME280;21899;42.662;23.316;2023-02-01T00:41:34;94466.25;;;0.77;85.71
35778;BME280;21899;42.662;23.316;2023-02-01T00:43:59;94452.81;;;0.70;85.19
35778;BME280;21899;42.662;23.316;2023-02-01T00:46:25;94455.06;;;0.59;85.42
35778;BME280;21899;42.662;23.316;2023-02-01T00:48:50;94455.13;;;0.51;85.09
35778;BME280;21899;42.662;23.316;2023-02-01T00:51:18;94458.63;;;0.55;84.99
35778;BME280;21899;42.662;23.316;2023-02-01T00:53:45;94451.84;;;0.54;84.91
35778;BME280;21899;42.662;23.316;2023-02-01T00:56:11;94450.31;;;0.53;84.30
35778;BME280;21899;42.662;23.316;2023-02-01T00:58:37;94455.69;;;0.56;85.01
35778;BME280;21899;42.662;23.316;2023-02-01T01:01:11;94453.97;;;0.60;84.24
35778;BME280;21899;42.662;23.316;2023-02-01T01:03:41;94456.72;;;0.64;83.90
35778;BME280;21899;42.662;23.316;2023-02-01T01:06:09;94442.97;;;0.58;83.00
35778;BME280;21899;42.662;23.316;2023-02-01T01:08:36;94455.59;;;0.73;82.57
35778;BME280;21899;42.662;23.316;2023-02-01T01:11:10;94451.28;;;0.69;82.46
35778;BME280;21899;42.662;23.316;2023-02-01T01:13:36;94451.59;;;0.67;81.89
35778;BME280;21899;42.662;23.316;2023-02-01T01:16:03;94446.19;;;0.64;81.85
35778;BME280;21899;42.662;23.316;2023-02-01T01:18:30;94446.47;;;0.71;81.33
35778;BME280;21899;42.662;23.316;2023-02-01T01:20:56;94440.56;;;0.74;80.94
35778;BME280;21899;42.662;23.316;2023-02-01T01:23:21;94450.91;;;0.79;80.83
35778;BME280;21899;42.662;23.316;2023-02-01T01:25:47;94438.81;;;0.78;80.72
35778;BME280;21899;42.662;23.316;2023-02-01T01:28:12;94433.31;;;0.71;79.74
35778;BME280;21899;42.662;23.316;2023-02-01T01:30:38;94443.00;;;0.79;80.43
35778;BME280;21899;42.662;23.316;2023-02-01T01:33:03;94439.59;;;0.78;79.33
35778;BME280;21899;42.662;23.316;2023-02-01T01:35:30;94450.91;;;0.79;78.93
35778;BME280;21899;42.662;23.316;2023-02-01T01:37:56;94445.03;;;0.73;77.55
35778;BME280;21899;42.662;23.316;2023-02-01T01:40:21;94453.41;;;0.75;77.83
35778;BME280;21899;42.662;23.316;2023-02-01T01:42:47;94462.00;;;0.64;77.42
35778;BME280;21899;42.662;23.316;2023-02-01T01:45:32;94465.00;;;0.54;77.76
35778;BME280;21899;42.662;23.316;2023-02-01T01:47:59;94460.25;;;0.47;78.06
35778;BME280;21899;42.662;23.316;2023-02-01T01:50:33;94461.97;;;0.43;78.32
35778;BME280;21899;42.662;23.316;2023-02-01T01:53:01;94467.88;;;0.40;78.65
35778;BME280;21899;42.662;23.316;2023-02-01T01:55:32;94462.22;;;0.30;78.24
35778;BME280;21899;42.662;23.316;2023-02-01T01:58:02;94449.84;;;0.22;78.92
35778;BME280;21899;42.662;23.316;2023-02-01T02:00:31;94459.19;;;0.11;78.89
35778;BME280;21899;42.662;23.316;2023-02-01T02:03:00;94454.28;;;0.00;79.79
35778;BME280;21899;42.662;23.316;2023-02-01T02:05:29;94444.09;;;-0.10;80.20
35778;BME280;21899;42.662;23.316;2023-02-01T02:07:58;94444.59;;;-0.16;81.00
35778;BME280;21899;42.662;23.316;2023-02-01T02:10:25;94449.09;;;-0.17;81.38
35778;BME280;21899;42.662;23.316;2023-02-01T02:13:11;94450.97;;;-0.26;81.51
35778;BME280;21899;42.662;23.316;2023-02-01T02:15:43;94450.50;;;-0.28;81.92
35778;BME280;21899;42.662;23.316;2023-02-01T02:18:19;94446.50;;;-0.25;82.37
35778;BME280;21899;42.662;23.316;2023-02-01T02:21:11;94443.25;;;-0.31;82.40
35778;BME280;21899;42.662;23.316;2023-02-01T02:26:30;94437.22;;;-0.40;81.80
35778;BME280;21899;42.662;23.316;2023-02-01T02:29:26;94454.72;;;-0.44;82.23
35778;BME280;21899;42.662;23.316;2023-02-01T02:32:35;94443.91;;;-0.42;82.26
35778;BME280;21899;42.662;23.316;2023-02-01T02:35:24;94440.50;;;-0.43;81.73
35778;BME280;21899;42.662;23.316;2023-02-01T02:43:13;94452.25;;;-0.32;81.60
35778;BME280;21899;42.662;23.316;2023-02-01T02:46:14;94445.53;;;-0.21;81.50
35778;BME280;21899;42.662;23.316;2023-02-01T02:49:11;94434.69;;;-0.19;80.39
35778;BME280;21899;42.662;23.316;2023-02-01T02:54:36;94443.34;;;-0.10;80.21
35778;BME280;21899;42.662;23.316;2023-02-01T02:57:34;94442.41;;;-0.06;79.45
35778;BME280;21899;42.662;23.316;2023-02-01T03:00:22;94438.84;;;-0.10;78.74
35778;BME280;21899;42.662;23.316;2023-02-01T03:03:08;94426.16;;;-0.08;77.84
35778;BME280;21899;42.662;23.316;2023-02-01T03:05:52;94430.91;;;-0.01;77.11
35778;BME280;21899;42.662;23.316;2023-02-01T03:08:22;94446.03;;;0.11;76.40
35778;BME280;21899;42.662;23.316;2023-02-01T03:10:55;94449.72;;;0.18;76.14
35778;BME280;21899;42.662;23.316;2023-02-01T03:19:21;94462.88;;;0.18;75.45
35778;BME280;21899;42.662;23.316;2023-02-01T03:21:50;94476.44;;;0.29;75.28
35778;BME280;21899;42.662;23.316;2023-02-01T03:24:38;94467.19;;;0.23;75.38
35778;BME280;21899;42.662;23.316;2023-02-01T03:27:51;94473.41;;;0.18;76.11
35778;BME280;21899;42.662;23.316;2023-02-01T03:32:33;94471.28;;;0.12;76.56
35778;BME280;21899;42.662;23.316;2023-02-01T03:35:22;94477.94;;;0.09;76.74
35778;BME280;21899;42.662;23.316;2023-02-01T03:37:54;94472.19;;;0.07;76.88
35778;BME280;21899;42.662;23.316;2023-02-01T03:40:21;94471.13;;;0.08;77.38
35778;BME280;21899;42.662;23.316;2023-02-01T03:42:51;94462.91;;;0.10;77.10
35778;BME280;21899;42.662;23.316;2023-02-01T03:47:53;94448.13;;;-0.04;77.83
35778;BME280;21899;42.662;23.316;2023-02-01T03:50:21;94466.94;;;0.07;77.45
35778;BME280;21899;42.662;23.316;2023-02-01T03:53:02;94463.56;;;0.07;77.39
35778;BME280;21899;42.662;23.316;2023-02-01T03:55:29;94466.00;;;0.12;76.65
35778;BME280;21899;42.662;23.316;2023-02-01T03:58:09;94467.53;;;0.13;77.28
35778;BME280;21899;42.662;23.316;2023-02-01T04:00:37;94461.63;;;0.16;77.39
35778;BME280;21899;42.662;23.316;2023-02-01T04:03:04;94472.16;;;0.16;77.34
35778;BME280;21899;42.662;23.316;2023-02-01T04:05:30;94485.31;;;0.16;77.27
35778;BME280;21899;42.662;23.316;2023-02-01T04:07:56;94467.38;;;0.18;77.49
35778;BME280;21899;42.662;23.316;2023-02-01T04:10:22;94466.56;;;0.26;77.39
35778;BME280;21899;42.662;23.316;2023-02-01T04:12:47;94462.81;;;0.27;77.51
35778;BME280;21899;42.662;23.316;2023-02-01T04:15:12;94467.91;;;0.32;77.90
35778;BME280;21899;42.662;23.316;2023-02-01T04:17:38;94463.75;;;0.31;77.56
35778;BME280;21899;42.662;23.316;2023-02-01T04:20:04;94469.94;;;0.35;78.25
35778;BME280;21899;42.662;23.316;2023-02-01T04:22:30;94470.22;;;0.33;78.58
35778;BME280;21899;42.662;23.316;2023-02-01T04:24:55;94475.59;;;0.45;78.44
35778;BME280;21899;42.662;23.316;2023-02-01T04:27:20;94480.22;;;0.48;79.19
35778;BME280;21899;42.662;23.316;2023-02-01T04:29:46;94470.91;;;0.51;79.06
35778;BME280;21899;42.662;23.316;2023-02-01T04:32:12;94477.44;;;0.45;79.38
35778;BME280;21899;42.662;23.316;2023-02-01T04:34:37;94484.88;;;0.51;80.14
35778;BME280;21899;42.662;23.316;2023-02-01T04:37:02;94472.50;;;0.43;80.19
35778;BME280;21899;42.662;23.316;2023-02-01T04:39:28;94462.22;;;0.50;80.59
35778;BME280;21899;42.662;23.316;2023-02-01T04:41:53;94475.22;;;0.55;80.72
35778;BME280;21899;42.662;23.316;2023-02-01T04:44:19;94473.38;;;0.56;81.28
35778;BME280;21899;42.662;23.316;2023-02-01T04:46:46;94478.31;;;0.57;80.95
35778;BME280;21899;42.662;23.316;2023-02-01T04:49:12;94477.66;;;0.60;81.47
35778;BME280;21899;42.662;23.316;2023-02-01T04:51:38;94479.34;;;0.65;81.42
35778;BME280;21899;42.662;23.316;2023-02-01T04:54:04;94490.47;;;0.70;81.57
35778;BME280;21899;42.662;23.316;2023-02-01T04:56:30;94483.53;;;0.66;81.57
35778;BME280;21899;42.662;23.316;2023-02-01T04:58:55;94487.88;;;0.62;81.98
35778;BME280;21899;42.662;23.316;2023-02-01T05:01:21;94489.44;;;0.63;82.40
35778;BME280;21899;42.662;23.316;2023-02-01T05:03:46;94494.78;;;0.75;82.86
35778;BME280;21899;42.662;23.316;2023-02-01T05:06:12;94498.66;;;0.77;82.19
35778;BME280;21899;42.662;23.316;2023-02-01T05:08:37;94492.72;;;0.80;82.15
35778;BME280;21899;42.662;23.316;2023-02-01T05:11:03;94509.56;;;0.88;82.35
35778;BME280;21899;42.662;23.316;2023-02-01T05:13:29;94506.59;;;0.89;82.50
35778;BME280;21899;42.662;23.316;2023-02-01T05:16:13;94514.50;;;0.89;82.24
35778;BME280;21899;42.662;23.316;2023-02-01T05:18:39;94519.50;;;0.91;82.42
35778;BME280;21899;42.662;23.316;2023-02-01T05:21:04;94514.97;;;0.91;82.48
35778;BME280;21899;42.662;23.316;2023-02-01T05:23:30;94510.47;;;0.92;82.76
35778;BME280;21899;42.662;23.316;2023-02-01T05:25:59;94501.47;;;0.93;82.90
35778;BME280;21899;42.662;23.316;2023-02-01T05:28:27;94504.44;;;0.91;82.87
35778;BME280;21899;42.662;23.316;2023-02-01T05:30:52;94503.03;;;0.94;82.85
35778;BME280;21899;42.662;23.316;2023-02-01T05:33:18;94512.16;;;0.96;83.07
35778;BME280;21899;42.662;23.316;2023-02-01T05:35:43;94513.81;;;1.01;83.09
35778;BME280;21899;42.662;23.316;2023-02-01T05:38:08;94512.41;;;1.03;82.55
35778;BME280;21899;42.662;23.316;2023-02-01T05:40:34;94507.94;;;1.04;82.31
35778;BME280;21899;42.662;23.316;2023-02-01T05:42:59;94516.72;;;1.08;82.59
35778;BME280;21899;42.662;23.316;2023-02-01T05:45:25;94496.00;;;0.98;82.46
35778;BME280;21899;42.662;23.316;2023-02-01T05:47:50;94505.63;;;1.02;82.27
35778;BME280;21899;42.662;23.316;2023-02-01T05:50:16;94505.28;;;1.04;81.55
35778;BME280;21899;42.662;23.316;2023-02-01T05:52:41;94504.66;;;1.07;81.69
35778;BME280;21899;42.662;23.316;2023-02-01T05:55:07;94494.66;;;1.12;81.75
35778;BME280;21899;42.662;23.316;2023-02-01T05:57:32;94507.03;;;1.20;81.16
35778;BME280;21899;42.662;23.316;2023-02-01T05:59:58;94506.06;;;1.25;80.72
35778;BME280;21899;42.662;23.316;2023-02-01T06:02:23;94500.97;;;1.20;79.57
35778;BME280;21899;42.662;23.316;2023-02-01T06:04:50;94500.19;;;1.19;79.56
35778;BME280;21899;42.662;23.316;2023-02-01T06:07:15;94519.38;;;1.28;79.40
35778;BME280;21899;42.662;23.316;2023-02-01T06:09:40;94517.19;;;1.30;79.15
35778;BME280;21899;42.662;23.316;2023-02-01T06:12:06;94505.06;;;1.29;78.90
35778;BME280;21899;42.662;23.316;2023-02-01T06:14:31;94513.19;;;1.24;78.64
35778;BME280;21899;42.662;23.316;2023-02-01T06:16:57;94521.69;;;1.30;78.76
35778;BME280;21899;42.662;23.316;2023-02-01T06:19:23;94508.81;;;1.28;78.62
35778;BME280;21899;42.662;23.316;2023-02-01T06:21:48;94514.22;;;1.32;78.54
35778;BME280;21899;42.662;23.316;2023-02-01T06:24:14;94526.25;;;1.42;78.29
35778;BME280;21899;42.662;23.316;2023-02-01T06:26:40;94526.56;;;1.40;77.52
35778;BME280;21899;42.662;23.316;2023-02-01T06:29:06;94528.88;;;1.42;77.46
35778;BME280;21899;42.662;23.316;2023-02-01T06:31:32;94531.19;;;1.43;77.53
35778;BME280;21899;42.662;23.316;2023-02-01T06:33:58;94528.69;;;1.47;77.19
35778;BME280;21899;42.662;23.316;2023-02-01T06:36:23;94525.19;;;1.55;76.96
35778;BME280;21899;42.662;23.316;2023-02-01T06:38:49;94537.09;;;1.61;76.45
35778;BME280;21899;42.662;23.316;2023-02-01T06:41:14;94539.41;;;1.62;75.94
35778;BME280;21899;42.662;23.316;2023-02-01T06:43:40;94534.38;;;1.69;75.33
35778;BME280;21899;42.662;23.316;2023-02-01T06:46:08;94533.78;;;1.64;75.52
35778;BME280;21899;42.662;23.316;2023-02-01T06:48:35;94548.91;;;1.75;74.54
35778;BME280;21899;42.662;23.316;2023-02-01T06:51:00;94549.69;;;1.76;74.16
35778;BME280;21899;42.662;23.316;2023-02-01T06:53:27;94555.53;;;1.81;74.75
35778;BME280;21899;42.662;23.316;2023-02-01T06:55:53;94539.69;;;1.81;74.13
35778;BME280;21899;42.662;23.316;2023-02-01T06:58:19;94555.84;;;1.80;74.06
35778;BME280;21899;42.662;23.316;2023-02-01T07:00:44;94554.44;;;1.82;73.38
35778;BME280;21899;42.662;23.316;2023-02-01T07:03:09;94565.22;;;1.89;73.31
35778;BME280;21899;42.662;23.316;2023-02-01T07:05:35;94569.84;;;1.92;73.65
35778;BME280;21899;42.662;23.316;2023-02-01T07:08:00;94573.16;;;1.89;72.99
35778;BME280;21899;42.662;23.316;2023-02-01T07:10:26;94571.94;;;1.87;72.88
35778;BME280;21899;42.662;23.316;2023-02-01T07:12:51;94567.16;;;1.80;72.62
35778;BME280;21899;42.662;23.316;2023-02-01T07:15:17;94574.88;;;1.85;72.62
35778;BME280;21899;42.662;23.316;2023-02-01T07:17:42;94563.31;;;1.78;72.84
35778;BME280;21899;42.662;23.316;2023-02-01T07:20:10;94581.19;;;1.93;72.71
35778;BME280;21899;42.662;23.316;2023-02-01T07:22:36;94592.41;;;1.90;72.40
35778;BME280;21899;42.662;23.316;2023-02-01T07:25:01;94573.16;;;1.89;72.77
35778;BME280;21899;42.662;23.316;2023-02-01T07:27:27;94576.69;;;1.93;72.15
35778;BME280;21899;42.662;23.316;2023-02-01T07:29:52;94588.38;;;2.04;71.50
35778;BME280;21899;42.662;23.316;2023-02-01T07:32:20;94588.84;;;2.06;71.88
35778;BME280;21899;42.662;23.316;2023-02-01T07:34:45;94592.81;;;2.12;71.36
35778;BME280;21899;42.662;23.316;2023-02-01T07:37:11;94598.13;;;2.24;71.17
35778;BME280;21899;42.662;23.316;2023-02-01T07:39:36;94582.94;;;2.21;70.21
35778;BME280;21899;42.662;23.316;2023-02-01T07:42:02;94588.56;;;2.32;69.97
35778;BME280;21899;42.662;23.316;2023-02-01T07:44:27;94599.13;;;2.32;69.16
35778;BME280;21899;42.662;23.316;2023-02-01T07:46:52;94596.81;;;2.30;70.12
35778;BME280;21899;42.662;23.316;2023-02-01T07:49:18;94601.00;;;2.31;69.77
35778;BME280;21899;42.662;23.316;2023-02-01T07:51:43;94596.59;;;2.35;70.03
35778;BME280;21899;42.662;23.316;2023-02-01T07:54:09;94597.19;;;2.41;69.30
35778;BME280;21899;42.662;23.316;2023-02-01T07:56:34;94610.06;;;2.42;68.48
35778;BME280;21899;42.662;23.316;2023-02-01T07:59:00;94595.94;;;2.38;67.97
35778;BME280;21899;42.662;23.316;2023-02-01T08:01:27;94616.47;;;2.53;68.91
35778;BME280;21899;42.662;23.316;2023-02-01T08:03:58;94621.97;;;2.60;68.01
35778;BME280;21899;42.662;23.316;2023-02-01T08:06:24;94621.09;;;2.68;67.57
35778;BME280;21899;42.662;23.316;2023-02-01T08:08:51;94632.34;;;2.65;67.31
35778;BME280;21899;42.662;23.316;2023-02-01T08:11:17;94619.34;;;2.60;67.44
35778;BME280;21899;42.662;23.316;2023-02-01T08:13:43;94633.63;;;2.59;67.39
35778;BME280;21899;42.662;23.316;2023-02-01T08:16:11;94620.66;;;2.66;67.59
35778;BME280;21899;42.662;23.316;2023-02-01T08:18:37;94619.78;;;2.75;66.17
35778;BME280;21899;42.662;23.316;2023-02-01T08:23:34;94611.22;;;3.14;65.85
35778;BME280;21899;42.662;23.316;2023-02-01T08:26:21;94617.38;;;3.18;64.93
35778;BME280;21899;42.662;23.316;2023-02-01T08:29:07;94627.97;;;3.30;64.16
35778;BME280;21899;42.662;23.316;2023-02-01T08:31:33;94611.97;;;3.14;63.45
35778;BME280;21899;42.662;23.316;2023-02-01T08:34:01;94621.59;;;3.19;63.91
35778;BME280;21899;42.662;23.316;2023-02-01T08:36:28;94611.00;;;3.19;64.32
35778;BME280;21899;42.662;23.316;2023-02-01T08:38:54;94624.00;;;3.24;63.80
35778;BME280;21899;42.662;23.316;2023-02-01T08:41:22;94606.34;;;3.28;63.80
35778;BME280;21899;42.662;23.316;2023-02-01T08:43:48;94610.63;;;3.32;63.45
35778;BME280;21899;42.662;23.316;2023-02-01T08:46:14;94625.81;;;3.59;62.46
35778;BME280;21899;42.662;23.316;2023-02-01T08:48:40;94611.13;;;3.74;62.14
35778;BME280;21899;42.662;23.316;2023-02-01T08:51:10;94606.81;;;3.81;61.58
35778;BME280;21899;42.662;23.316;2023-02-01T08:53:37;94604.19;;;3.97;61.20
35778;BME280;21899;42.662;23.316;2023-02-01T08:56:03;94610.47;;;4.05;60.50
35778;BME280;21899;42.662;23.316;2023-02-01T08:58:29;94603.59;;;4.16;59.67
35778;BME280;21899;42.662;23.316;2023-02-01T09:00:54;94598.91;;;4.25;59.61
35778;BME280;21899;42.662;23.316;2023-02-01T09:03:20;94609.34;;;4.33;58.03
35778;BME280;21899;42.662;23.316;2023-02-01T09:05:46;94607.09;;;4.20;58.58
35778;BME280;21899;42.662;23.316;2023-02-01T09:08:13;94603.72;;;4.07;58.70
35778;BME280;21899;42.662;23.316;2023-02-01T09:10:40;94618.94;;;4.10;58.62
35778;BME280;21899;42.662;23.316;2023-02-01T09:13:06;94614.63;;;4.18;58.93
35778;BME280;21899;42.662;23.316;2023-02-01T09:15:33;94603.53;;;4.28;58.43
35778;BME280;21899;42.662;23.316;2023-02-01T09:17:58;94615.63;;;4.41;57.14
35778;BME280;21899;42.662;23.316;2023-02-01T09:20:23;94612.56;;;4.54;57.67
35778;BME280;21899;42.662;23.316;2023-02-01T09:22:54;94621.72;;;4.72;57.36
35778;BME280;21899;42.662;23.316;2023-02-01T09:25:19;94619.69;;;4.66;57.06
35778;BME280;21899;42.662;23.316;2023-02-01T09:27:44;94620.69;;;4.61;57.09
35778;BME280;21899;42.662;23.316;2023-02-01T09:30:10;94613.25;;;4.67;56.74
35778;BME280;21899;42.662;23.316;2023-02-01T09:32:36;94616.59;;;4.79;56.02
35778;BME280;21899;42.662;23.316;2023-02-01T09:35:02;94609.00;;;4.93;56.13
35778;BME280;21899;42.662;23.316;2023-02-01T09:37:28;94597.50;;;4.89;55.15
35778;BME280;21899;42.662;23.316;2023-02-01T09:39:53;94586.91;;;4.74;55.54
35778;BME280;21899;42.662;23.316;2023-02-01T09:45:38;94602.47;;;4.75;55.39
35778;BME280;21899;42.662;23.316;2023-02-01T09:48:19;94589.56;;;4.74;54.82
35778;BME280;21899;42.662;23.316;2023-02-01T09:50:54;94574.41;;;4.74;55.33
35778;BME280;21899;42.662;23.316;2023-02-01T09:53:38;94586.91;;;4.89;54.45
35778;BME280;21899;42.662;23.316;2023-02-01T09:56:18;94568.34;;;4.89;55.30
35778;BME280;21899;42.662;23.316;2023-02-01T10:01:40;94565.69;;;4.89;53.92
35778;BME280;21899;42.662;23.316;2023-02-01T10:04:13;94554.31;;;4.73;54.14
35778;BME280;21899;42.662;23.316;2023-02-01T10:09:59;94556.47;;;4.52;55.03
35778;BME280;21899;42.662;23.316;2023-02-01T10:28:16;94533.03;;;4.85;54.38
35778;BME280;21899;42.662;23.316;2023-02-01T10:30:47;94546.97;;;4.67;54.57
35778;BME280;21899;42.662;23.316;2023-02-01T10:33:18;94534.91;;;4.38;55.18
35778;BME280;21899;42.662;23.316;2023-02-01T10:35:53;94528.94;;;4.41;56.15
35778;BME280;21899;42.662;23.316;2023-02-01T10:38:26;94531.16;;;4.39;57.41
35778;BME280;21899;42.662;23.316;2023-02-01T10:40:55;94524.91;;;4.47;56.48
35778;BME280;21899;42.662;23.316;2023-02-01T10:43:24;94531.34;;;4.46;56.88
35778;BME280;21899;42.662;23.316;2023-02-01T10:45:49;94526.94;;;4.38;55.93
35778;BME280;21899;42.662;23.316;2023-02-01T10:48:15;94519.69;;;4.66;55.14
35778;BME280;21899;42.662;23.316;2023-02-01T10:51:00;94520.88;;;4.53;54.61
35778;BME280;21899;42.662;23.316;2023-02-01T10:53:32;94531.38;;;4.19;56.08
35778;BME280;21899;42.662;23.316;2023-02-01T10:56:07;94504.53;;;4.20;55.74
35778;BME280;21899;42.662;23.316;2023-02-01T10:58:32;94519.78;;;4.54;55.86
35778;BME280;21899;42.662;23.316;2023-02-01T11:01:01;94498.06;;;4.33;55.86
35778;BME280;21899;42.662;23.316;2023-02-01T11:05:56;94514.50;;;4.54;55.74
35778;BME280;21899;42.662;23.316;2023-02-01T11:08:21;94518.16;;;4.65;55.58
35778;BME280;21899;42.662;23.316;2023-02-01T11:10:47;94509.50;;;4.84;53.85
35778;BME280;21899;42.662;23.316;2023-02-01T11:13:29;94506.13;;;5.02;54.52
35778;BME280;21899;42.662;23.316;2023-02-01T11:15:56;94506.41;;;4.97;53.04
35778;BME280;21899;42.662;23.316;2023-02-01T11:18:28;94511.03;;;4.85;54.28
35778;BME280;21899;42.662;23.316;2023-02-01T11:20:54;94510.78;;;4.90;54.01
35778;BME280;21899;42.662;23.316;2023-02-01T11:23:25;94494.56;;;4.76;53.46
35778;BME280;21899;42.662;23.316;2023-02-01T11:26:00;94496.16;;;4.80;54.59
35778;BME280;21899;42.662;23.316;2023-02-01T11:28:33;94487.22;;;4.69;54.73
35778;BME280;21899;42.662;23.316;2023-02-01T11:31:04;94482.41;;;4.28;57.04
35778;BME280;21899;42.662;23.316;2023-02-01T11:33:35;94499.00;;;4.25;57.08
35778;BME280;21899;42.662;23.316;2023-02-01T11:36:09;94491.56;;;4.31;58.57
35778;BME280;21899;42.662;23.316;2023-02-01T11:38:37;94492.59;;;4.42;56.16
35778;BME280;21899;42.662;23.316;2023-02-01T11:41:25;94500.88;;;4.40;57.13
35778;BME280;21899;42.662;23.316;2023-02-01T11:44:01;94487.31;;;4.26;57.61
35778;BME280;21899;42.662;23.316;2023-02-01T11:46:32;94500.56;;;4.26;57.54
35778;BME280;21899;42.662;23.316;2023-02-01T11:49:15;94488.06;;;4.42;57.96
35778;BME280;21899;42.662;23.316;2023-02-01T11:52:15;94487.63;;;4.40;57.45
35778;BME280;21899;42.662;23.316;2023-02-01T11:54:58;94467.19;;;4.25;57.03
35778;BME280;21899;42.662;23.316;2023-02-01T12:05:59;94444.81;;;4.07;58.35
35778;BME280;21899;42.662;23.316;2023-02-01T12:14:57;94462.44;;;4.31;58.42
35778;BME280;21899;42.662;23.316;2023-02-01T12:17:41;94469.94;;;4.44;59.10
35778;BME280;21899;42.662;23.316;2023-02-01T12:20:41;94460.53;;;4.47;56.48
35778;BME280;21899;42.662;23.316;2023-02-01T12:23:42;94466.13;;;4.26;58.75
35778;BME280;21899;42.662;23.316;2023-02-01T12:37:12;94472.84;;;4.39;58.72
35778;BME280;21899;42.662;23.316;2023-02-01T12:40:28;94465.59;;;4.36;59.49
35778;BME280;21899;42.662;23.316;2023-02-01T12:42:42;94468.06;;;4.29;59.08
35778;BME280;21899;42.662;23.316;2023-02-01T12:51:07;94459.31;;;4.75;57.03
35778;BME280;21899;42.662;23.316;2023-02-01T12:54:00;94442.09;;;4.85;56.08
35778;BME280;21899;42.662;23.316;2023-02-01T12:56:42;94452.63;;;4.81;57.36
35778;BME280;21899;42.662;23.316;2023-02-01T12:59:27;94467.91;;;4.88;56.99
35778;BME280;21899;42.662;23.316;2023-02-01T13:02:03;94442.09;;;4.85;56.41
35778;BME280;21899;42.662;23.316;2023-02-01T13:04:37;94447.75;;;4.83;54.82
35778;BME280;21899;42.662;23.316;2023-02-01T13:07:18;94453.03;;;4.83;55.54
35778;BME280;21899;42.662;23.316;2023-02-01T13:12:16;94446.06;;;4.60;56.75
35778;BME280;21899;42.662;23.316;2023-02-01T13:14:47;94464.13;;;4.54;56.67
35778;BME280;21899;42.662;23.316;2023-02-01T13:17:22;94449.59;;;4.48;56.35
35778;BME280;21899;42.662;23.316;2023-02-01T13:24:59;94457.28;;;4.53;54.09
35778;BME280;21899;42.662;23.316;2023-02-01T13:27:27;94464.97;;;4.74;55.04
35778;BME280;21899;42.662;23.316;2023-02-01T13:32:47;94474.97;;;4.99;52.12
35778;BME280;21899;42.662;23.316;2023-02-01T13:43:38;94461.66;;;4.30;52.88
35778;BME280;21899;42.662;23.316;2023-02-01T13:46:08;94463.78;;;4.40;52.84
35778;BME280;21899;42.662;23.316;2023-02-01T13:48:40;94453.44;;;4.51;52.35
35778;BME280;21899;42.662;23.316;2023-02-01T13:51:12;94442.97;;;4.73;51.44
35778;BME280;21899;42.662;23.316;2023-02-01T13:53:45;94464.03;;;5.01;51.51
35778;BME280;21899;42.662;23.316;2023-02-01T13:56:15;94454.06;;;5.13;51.58
35778;BME280;21899;42.662;23.316;2023-02-01T13:58:43;94462.88;;;5.37;50.22
35778;BME280;21899;42.662;23.316;2023-02-01T14:03:57;94473.56;;;5.59;50.60
35778;BME280;21899;42.662;23.316;2023-02-01T14:11:36;94461.97;;;5.67;50.00
35778;BME280;21899;42.662;23.316;2023-02-01T14:16:41;94454.50;;;5.73;50.43
35778;BME280;21899;42.662;23.316;2023-02-01T14:19:24;94466.63;;;5.74;49.73
35778;BME280;21899;42.662;23.316;2023-02-01T14:21:52;94453.34;;;5.74;49.52
35778;BME280;21899;42.662;23.316;2023-02-01T14:24:25;94443.66;;;5.81;49.65
35778;BME280;21899;42.662;23.316;2023-02-01T14:26:53;94445.53;;;5.81;49.37
35778;BME280;21899;42.662;23.316;2023-02-01T14:29:35;94448.75;;;5.71;49.65
35778;BME280;21899;42.662;23.316;2023-02-01T14:32:17;94456.66;;;5.67;49.53
35778;BME280;21899;42.662;23.316;2023-02-01T14:37:35;94442.78;;;5.55;49.16
35778;BME280;21899;42.662;23.316;2023-02-01T14:47:42;94439.91;;;5.25;51.05
35778;BME280;21899;42.662;23.316;2023-02-01T14:55:40;94464.69;;;5.13;52.10
35778;BME280;21899;42.662;23.316;2023-02-01T14:58:18;94463.84;;;5.09;52.60
35778;BME280;21899;42.662;23.316;2023-02-01T15:00:59;94466.41;;;5.06;52.43
35778;BME280;21899;42.662;23.316;2023-02-01T15:03:31;94460.69;;;5.04;52.30
35778;BME280;21899;42.662;23.316;2023-02-01T15:05:59;94463.63;;;4.99;53.11
35778;BME280;21899;42.662;23.316;2023-02-01T15:08:31;94450.91;;;4.89;52.75
35778;BME280;21899;42.662;23.316;2023-02-01T15:11:00;94454.84;;;4.79;53.40
35778;BME280;21899;42.662;23.316;2023-02-01T15:13:28;94453.03;;;4.83;53.77
35778;BME280;21899;42.662;23.316;2023-02-01T15:18:30;94451.78;;;4.77;53.29
35778;BME280;21899;42.662;23.316;2023-02-01T15:21:00;94453.56;;;4.73;52.95
35778;BME280;21899;42.662;23.316;2023-02-01T15:23:26;94444.84;;;4.73;52.35
35778;BME280;21899;42.662;23.316;2023-02-01T15:25:53;94434.19;;;4.69;52.98